Mc Connell Air Force Base
KIAB : now visible

Airfield :











YOU CAN JOIN US ON...

 
LOGIN :

Register | Disclaimer

   EN    FR    IT 

 









Legend :    VFR   Marginal VFR   IFR   Intensive IFR   Very Intensive IFR
Visi :
Ceiling :
>= 8 km
>= 3000ft
5 to 8 km
1000 to 3000 ft
1500m to 5 km
500 to 1000 ft
800 to 1500m
200 to 500 ft
< 800m
< 200 ft
Symbols :   Thunderstorms  Fog  Heavy snow  Heavy precipitations  Wind > 20 kt






- Airport Elevation : 1371 ft
- IATA code : IAB


KIAB - Mc Connell Air Force Base

CURRENT METAR :
  • 270356Z AUTO 26007KT 10SM CLR M01/M09 A3033 RMK AO2 SLP289 T10101087

EXPIRED METARs :
  • 270256Z AUTO 22003KT 10SM CLR M02/M09 A3033 RMK AO2 SLP289 T10201090 57008
  • 270156Z AUTO 24004KT 10SM CLR 01/M10 A3034 RMK AO2 SLP291 T00051104

TAF TAF KIAB
Valid from the 27 at 02:00 until the 28 at 08:00 UTC


270200Z 2702/2808 VRB06KT 9999 FEW220 QNH3022INS
BECMG 2708/2709 19009KT 9999 SCT050 BKN080 620802 QNH3017INS
BECMG 2714/2715 25012G18KT 9999 FEW050 SCT100 520063 QNH3010INS
BECMG 2723/2724 VRB06KT 9999 FEW035 BKN050 620504 510053 QNH3012INS
BECMG 2805/2806 VRB06KT 4800 BR SKC QNH3023INS TX10/2720Z TNM03/2711Z



MET'MAP, your aeronautical weather chart ! - Copyright ORBIFLY December 2007 - Disclaimer

ORBIFLY MET'MAP TEAM :

Programming & Development : Alexandra Zaïnal
Concept & original design : Baudouin d'Aumeries
Assistance for programming : Marc-Olivier Méhu
Technical & hardware support : Manuel Goepfert

Contact : metmap@orbifly.com




SOURCES & CREDITS :

   NOAA       Earth
Advisory